Time;durP1;ratioP1;P1;durP2;ratioP2;P2;SDS_P1;SDS_P2;PMS_P1;PMS_P2;Temp;Humidity;BMP_temperature;BMP_pressure;BME280_temperature;BME280_humidity;BME280_pressure;Samples;Min_cycle;Max_cycle;Signal;HPM_P1;HPM_P2
2022/07/26 00:01:20;;;;;;;;;;;;;;;23.23;42.47;101412.06;7287169;19;153248;-63
2022/07/26 00:03:48;;;;;;;;;;;;;;;23.24;42.43;101410.09;7283294;19;152661;-63
2022/07/26 00:06:15;;;;;;;;;;;;;;;23.16;42.35;101417.31;7288496;19;153341;-63
2022/07/26 00:08:44;;;;;;;;;;;;;;;23.12;42.67;101418.25;7286560;19;153287;-63
2022/07/26 00:11:11;;;;;;;;;;;;;;;23.19;42.70;101421.47;7289419;19;154761;-63
2022/07/26 00:13:38;;;;;;;;;;;;;;;23.17;42.25;101423.78;7288270;19;153304;-63
2022/07/26 00:16:05;;;;;;;;;;;;;;;23.24;42.45;101416.56;7286113;19;153231;-63
2022/07/26 00:18:32;;;;;;;;;;;;;;;23.15;42.53;101424.09;7286281;19;154574;-63
2022/07/26 00:20:58;;;;;;;;;;;;;;;23.09;42.43;101424.50;7293300;19;153876;-63
2022/07/26 00:23:26;;;;;;;;;;;;;;;23.19;42.48;101429.94;7285238;19;152954;-63
2022/07/26 00:25:53;;;;;;;;;;;;;;;23.12;42.59;101436.00;7285498;19;152893;-63
2022/07/26 00:28:20;;;;;;;;;;;;;;;23.08;42.42;101428.50;7286988;19;154110;-63
2022/07/26 00:30:46;;;;;;;;;;;;;;;23.12;42.68;101426.72;7285692;19;152057;-63
2022/07/26 00:33:13;;;;;;;;;;;;;;;23.05;42.67;101435.56;7287927;19;153621;-63
2022/07/26 00:35:40;;;;;;;;;;;;;;;23.16;42.20;101439.03;7282700;19;152885;-63
2022/07/26 00:38:07;;;;;;;;;;;;;;;23.11;42.32;101423.06;7285883;19;151897;-63
2022/07/26 00:40:34;;;;;;;;;;;;;;;23.13;42.37;101419.91;7287872;19;154503;-63
2022/07/26 00:43:01;;;;;;;;;;;;;;;23.13;42.44;101425.53;7294158;19;151978;-63
2022/07/26 00:45:28;;;;;;;;;;;;;;;23.05;42.78;101427.97;7284811;19;154722;-63
2022/07/26 00:47:54;;;;;;;;;;;;;;;23.11;42.26;101434.34;7287307;19;153915;-63
2022/07/26 00:50:21;;;;;;;;;;;;;;;23.06;42.41;101434.44;7284574;19;152640;-63
2022/07/26 00:52:48;;;;;;;;;;;;;;;23.12;42.69;101438.84;7286974;19;152650;-63
2022/07/26 00:55:16;;;;;;;;;;;;;;;23.02;42.51;101437.06;7285264;19;153142;-63
2022/07/26 00:57:43;;;;;;;;;;;;;;;23.02;42.75;101437.06;7287597;19;152324;-63
2022/07/26 01:00:11;;;;;;;;;;;;;;;22.95;43.01;101436.63;7286154;19;153960;-63
2022/07/26 01:02:38;;;;;;;;;;;;;;;23.05;42.88;101435.56;7293017;19;153954;-63
2022/07/26 01:05:05;;;;;;;;;;;;;;;22.96;42.92;101440.28;7283087;19;154451;-63
2022/07/26 01:07:32;;;;;;;;;;;;;;;22.98;42.52;101430.38;7284028;19;152238;-63
2022/07/26 01:10:00;;;;;;;;;;;;;;;23.05;42.57;101435.56;7287063;19;152366;-63
2022/07/26 01:12:27;;;;;;;;;;;;;;;23.00;42.52;101432.88;7286639;19;152552;-63
2022/07/26 01:14:53;;;;;;;;;;;;;;;23.07;42.41;101430.47;7285121;19;152166;-63
2022/07/26 01:17:20;;;;;;;;;;;;;;;23.08;42.35;101434.13;7286857;19;152425;-63
2022/07/26 01:19:47;;;;;;;;;;;;;;;22.99;42.67;101420.75;7283986;19;152594;-63
2022/07/26 01:22:14;;;;;;;;;;;;;;;22.91;43.03;101429.94;7284313;19;153568;-63
2022/07/26 01:24:41;;;;;;;;;;;;;;;22.96;42.84;101443.94;7293277;19;152050;-63
2022/07/26 01:27:07;;;;;;;;;;;;;;;23.02;42.94;101431.41;7285542;19;153824;-63
2022/07/26 01:29:34;;;;;;;;;;;;;;;23.04;42.73;101428.25;7286205;19;151805;-63
2022/07/26 01:32:03;;;;;;;;;;;;;;;23.02;43.00;101439.03;7287164;19;154364;-63
2022/07/26 01:34:30;;;;;;;;;;;;;;;23.01;42.85;101437.34;7282687;19;153604;-63
2022/07/26 01:36:57;;;;;;;;;;;;;;;22.98;43.18;101436.03;7285489;19;152500;-63
2022/07/26 01:39:24;;;;;;;;;;;;;;;23.00;42.81;101435.69;7286133;19;153713;-63
2022/07/26 01:41:52;;;;;;;;;;;;;;;23.00;42.67;101442.16;7284925;19;153880;-63
2022/07/26 01:44:18;;;;;;;;;;;;;;;22.98;43.14;101443.63;7285963;19;152255;-63
2022/07/26 01:46:45;;;;;;;;;;;;;;;23.02;42.85;101447.50;7292163;19;151981;-63
2022/07/26 01:49:12;;;;;;;;;;;;;;;23.05;42.81;101449.66;7281508;19;151886;-63
2022/07/26 01:51:39;;;;;;;;;;;;;;;23.04;42.80;101446.00;7284145;19;153852;-63
2022/07/26 01:54:05;;;;;;;;;;;;;;;22.99;43.11;101456.56;7283222;19;153162;-63
2022/07/26 01:56:33;;;;;;;;;;;;;;;22.95;43.33;101452.69;7287015;19;152306;-63
2022/07/26 01:58:59;;;;;;;;;;;;;;;22.94;43.01;101451.03;7285185;19;153630;-63
2022/07/26 02:01:26;;;;;;;;;;;;;;;22.91;43.23;101455.31;7284392;19;153200;-63
2022/07/26 02:04:05;;;;;;;;;;;;;;;22.96;42.95;101446.75;7279602;19;152359;-63
2022/07/26 02:06:32;;;;;;;;;;;;;;;23.07;42.77;101447.38;7281339;19;152843;-63
2022/07/26 02:08:59;;;;;;;;;;;;;;;22.99;42.84;101448.94;7291133;19;153545;-63
2022/07/26 02:11:27;;;;;;;;;;;;;;;22.98;43.10;101457.72;7284865;19;153585;-62
2022/07/26 02:13:54;;;;;;;;;;;;;;;22.99;43.32;101456.56;7283963;19;152898;-63
2022/07/26 02:16:21;;;;;;;;;;;;;;;22.97;43.11;101456.03;7284402;19;152376;-63
2022/07/26 02:18:47;;;;;;;;;;;;;;;22.93;43.08;101455.84;7282996;19;153640;-63
2022/07/26 02:21:14;;;;;;;;;;;;;;;23.04;43.07;101453.63;7281982;19;154255;-63
2022/07/26 02:23:41;;;;;;;;;;;;;;;22.92;43.23;101461.78;7285161;19;151514;-63
2022/07/26 02:26:08;;;;;;;;;;;;;;;22.94;43.48;101465.13;7280328;19;156456;-63
2022/07/26 02:28:34;;;;;;;;;;;;;;;22.88;43.54;101457.91;7283708;19;154888;-63
2022/07/26 02:31:01;;;;;;;;;;;;;;;22.95;43.29;101459.16;7291871;19;152750;-63
2022/07/26 02:33:28;;;;;;;;;;;;;;;22.91;43.38;101462.91;7282313;19;153539;-63
2022/07/26 02:35:55;;;;;;;;;;;;;;;22.99;43.25;101467.81;7283597;19;152028;-63
2022/07/26 02:38:21;;;;;;;;;;;;;;;22.93;43.51;101457.81;7284301;19;152682;-63
2022/07/26 02:40:51;;;;;;;;;;;;;;;23.01;43.41;101462.72;7282020;19;154485;-63
2022/07/26 02:43:18;;;;;;;;;;;;;;;23.01;43.68;101471.19;7282616;19;153422;-63
2022/07/26 02:45:45;;;;;;;;;;;;;;;22.99;43.54;101465.00;7283368;19;152884;-63
2022/07/26 02:48:29;;;;;;;;;;;;;;;22.89;43.78;101482.16;7281390;19;153794;-63
2022/07/26 02:50:56;;;;;;;;;;;;;;;22.94;43.75;101467.97;7285259;19;153271;-63
2022/07/26 02:53:23;;;;;;;;;;;;;;;22.94;43.88;101473.59;7283359;19;153376;-63
2022/07/26 02:55:49;;;;;;;;;;;;;;;22.97;43.86;101465.34;7284996;19;152205;-63
2022/07/26 02:58:16;;;;;;;;;;;;;;;22.86;43.85;101474.28;7283038;19;153257;-63
2022/07/26 03:00:43;;;;;;;;;;;;;;;22.88;44.15;101477.66;7281467;19;153898;-63
2022/07/26 03:03:12;;;;;;;;;;;;;;;;;;7282271;19;153691;-62
2022/07/26 03:05:39;;;;;;;;;;;;;;;22.90;43.88;101478.16;7275748;19;182555;-63
2022/07/26 03:08:06;;;;;;;;;;;;;;;22.90;43.87;101486.59;7282522;19;153197;-63
2022/07/26 03:10:33;;;;;;;;;;;;;;;22.89;44.00;101488.63;7280380;19;153310;-63
2022/07/26 03:12:59;;;;;;;;;;;;;;;22.85;44.15;101484.72;7290659;19;152885;-63
2022/07/26 03:15:26;;;;;;;;;;;;;;;22.90;43.95;101484.63;7282717;19;151873;-63
2022/07/26 03:17:54;;;;;;;;;;;;;;;22.94;44.32;101484.88;7282856;19;153059;-63
2022/07/26 03:20:20;;;;;;;;;;;;;;;22.83;44.32;101495.50;7279471;19;153200;-63
2022/07/26 03:22:47;;;;;;;;;;;;;;;22.87;44.10;101495.69;7282185;19;151924;-63
2022/07/26 03:25:14;;;;;;;;;;;;;;;22.86;44.38;101505.28;7284472;19;153234;-63
2022/07/26 03:27:40;;;;;;;;;;;;;;;22.80;44.43;101501.75;7281084;19;154955;-63
2022/07/26 03:30:07;;;;;;;;;;;;;;;22.92;44.30;101504.91;7282644;19;152071;-63
2022/07/26 03:32:34;;;;;;;;;;;;;;;22.85;44.38;101504.44;7281983;19;152884;-63
2022/07/26 03:35:01;;;;;;;;;;;;;;;22.89;44.61;101505.53;7287161;19;153446;-63
2022/07/26 03:37:27;;;;;;;;;;;;;;;22.83;44.76;101509.56;7281039;19;153204;-63
2022/07/26 03:40:11;;;;;;;;;;;;;;;22.90;44.69;101523.25;7279542;19;154357;-63
2022/07/26 03:42:38;;;;;;;;;;;;;;;22.84;44.61;101516.06;7281656;19;152656;-63
2022/07/26 03:45:05;;;;;;;;;;;;;;;22.85;44.40;101514.91;7281868;19;152869;-63
2022/07/26 03:47:32;;;;;;;;;;;;;;;22.84;44.52;101525.34;7281633;19;153737;-63
2022/07/26 03:49:59;;;;;;;;;;;;;;;22.85;44.73;101512.09;7279708;19;153323;-63
2022/07/26 03:52:25;;;;;;;;;;;;;;;22.82;44.97;101521.97;7281050;19;152237;-63
2022/07/26 03:54:52;;;;;;;;;;;;;;;22.82;44.65;101521.16;7280607;19;153944;-63
2022/07/26 03:57:19;;;;;;;;;;;;;;;22.90;44.54;101521.25;7290443;19;152699;-63
2022/07/26 03:59:45;;;;;;;;;;;;;;;22.82;44.60;101521.16;7280676;19;153903;-63
2022/07/26 04:02:12;;;;;;;;;;;;;;;22.90;44.67;101528.88;7280101;19;152432;-63
2022/07/26 04:04:39;;;;;;;;;;;;;;;22.91;44.82;101527.75;7275765;19;153446;-63
2022/07/26 04:07:07;;;;;;;;;;;;;;;22.78;44.72;101528.56;7276071;19;153281;-63
2022/07/26 04:09:34;;;;;;;;;;;;;;;22.89;44.69;101528.06;7281697;19;152278;-63
2022/07/26 04:12:01;;;;;;;;;;;;;;;22.76;45.08;101530.84;7281494;19;154080;-63
2022/07/26 04:14:28;;;;;;;;;;;;;;;22.82;44.86;101523.97;7286188;19;153727;-63
2022/07/26 04:16:55;;;;;;;;;;;;;;;22.73;45.01;101523.84;7288629;19;152137;-63
2022/07/26 04:19:27;;;;;;;;;;;;;;;22.77;44.79;101524.06;7291843;19;154237;-63
2022/07/26 04:21:57;;;;;;;;;;;;;;;22.82;44.73;101527.63;7287361;19;153065;-63
2022/07/26 04:24:24;;;;;;;;;;;;;;;22.85;44.89;101527.00;7287759;19;153306;-63
2022/07/26 04:26:51;;;;;;;;;;;;;;;22.78;44.83;101526.56;7285792;19;154533;-63
2022/07/26 04:29:18;;;;;;;;;;;;;;;22.78;45.30;101531.38;7287579;19;152030;-63
2022/07/26 04:31:51;;;;;;;;;;;;;;;22.83;45.01;101534.09;7288123;19;152282;-63
2022/07/26 04:34:18;;;;;;;;;;;;;;;22.83;45.00;101540.56;7283532;19;153377;-63
2022/07/26 04:36:45;;;;;;;;;;;;;;;22.70;45.08;101547.00;7286753;19;152856;-63
2022/07/26 04:39:12;;;;;;;;;;;;;;;22.69;45.32;101550.94;7288310;19;152742;-63
2022/07/26 04:41:38;;;;;;;;;;;;;;;22.66;45.67;101550.72;7293795;19;153939;-63
2022/07/26 04:44:05;;;;;;;;;;;;;;;22.74;45.21;101556.50;7286957;19;152088;-62
2022/07/26 04:46:33;;;;;;;;;;;;;;;22.70;45.37;101566.72;7285123;19;153961;-63
2022/07/26 04:48:59;;;;;;;;;;;;;;;22.78;45.34;101563.19;7284405;19;152190;-63
2022/07/26 04:51:26;;;;;;;;;;;;;;;22.73;45.40;101562.44;7286408;19;153952;-63
2022/07/26 04:53:53;;;;;;;;;;;;;;;22.74;45.46;101566.94;7285345;19;154593;-63
2022/07/26 04:56:20;;;;;;;;;;;;;;;22.76;45.46;101559.84;7288097;19;152518;-63
2022/07/26 04:58:47;;;;;;;;;;;;;;;22.74;45.31;101575.41;7286877;19;152309;-63
2022/07/26 05:01:14;;;;;;;;;;;;;;;22.72;45.80;101566.41;7294240;19;154256;-63
2022/07/26 05:03:40;;;;;;;;;;;;;;;22.73;45.30;101582.16;7282623;19;153849;-63
2022/07/26 05:06:08;;;;;;;;;;;;;;;22.89;45.36;101572.31;7284388;19;154355;-63
2022/07/26 05:08:34;;;;;;;;;;;;;;;22.76;45.24;101575.94;7285963;19;152009;-63
2022/07/26 05:11:02;;;;;;;;;;;;;;;22.78;45.70;101579.25;7287298;19;152987;-63
2022/07/26 05:13:29;;;;;;;;;;;;;;;22.73;45.53;101590.63;7285278;19;153594;-63
2022/07/26 05:15:57;;;;;;;;;;;;;;;22.81;45.46;101589.91;7287029;19;152472;-63
2022/07/26 05:18:25;;;;;;;;;;;;;;;22.75;45.84;101599.63;7285727;19;153018;-63
2022/07/26 05:20:52;;;;;;;;;;;;;;;22.74;45.66;101593.13;7284969;19;155480;-63
2022/07/26 05:23:19;;;;;;;;;;;;;;;22.79;45.68;101595.03;7291630;19;151949;-63
2022/07/26 05:25:46;;;;;;;;;;;;;;;22.75;45.50;101594.81;7282227;19;156338;-63
2022/07/26 05:28:13;;;;;;;;;;;;;;;22.69;45.70;101597.97;7286267;19;152067;-63
2022/07/26 05:30:40;;;;;;;;;;;;;;;22.72;45.69;101600.22;7286181;19;152752;-63
2022/07/26 05:33:07;;;;;;;;;;;;;;;22.80;46.01;101606.00;7285454;19;154317;-63
2022/07/26 05:35:34;;;;;;;;;;;;;;;22.70;46.37;101614.63;7282556;19;152659;-63
2022/07/26 05:38:01;;;;;;;;;;;;;;;22.71;46.14;101612.66;7284140;19;153914;-63
2022/07/26 05:40:27;;;;;;;;;;;;;;;22.70;46.72;101614.63;7284219;19;153813;-63
2022/07/26 05:42:54;;;;;;;;;;;;;;;22.59;47.04;101610.25;7286955;19;151967;-63
2022/07/26 05:45:21;;;;;;;;;;;;;;;22.57;47.39;101609.75;7292110;19;153620;-63
2022/07/26 05:47:49;;;;;;;;;;;;;;;22.60;47.17;101614.75;7282252;19;152679;-63
2022/07/26 05:50:16;;;;;;;;;;;;;;;22.58;47.54;101614.19;7283322;19;154334;-63
2022/07/26 05:52:42;;;;;;;;;;;;;;;22.62;47.70;101618.91;7283967;19;153981;-63
2022/07/26 05:55:09;;;;;;;;;;;;;;;22.65;47.57;101622.28;7285727;19;154460;-63
2022/07/26 05:57:40;;;;;;;;;;;;;;;22.65;47.55;101617.47;7285519;19;153592;-63
2022/07/26 06:00:07;;;;;;;;;;;;;;;22.69;47.76;101617.69;7284462;19;153315;-63
2022/07/26 06:02:34;;;;;;;;;;;;;;;22.56;47.57;101613.69;7284513;19;152299;-63
2022/07/26 06:05:01;;;;;;;;;;;;;;;22.64;47.54;101615.81;7281241;19;152957;-63
2022/07/26 06:07:28;;;;;;;;;;;;;;;22.61;47.80;101616.44;7288902;19;152325;-63
2022/07/26 06:09:54;;;;;;;;;;;;;;;22.53;47.85;101622.75;7283529;19;153849;-63
2022/07/26 06:12:21;;;;;;;;;;;;;;;22.55;47.97;101629.75;7284005;19;154245;-63
2022/07/26 06:14:48;;;;;;;;;;;;;;;22.53;48.03;101626.38;7284303;19;151783;-62
2022/07/26 06:17:15;;;;;;;;;;;;;;;22.60;47.55;101626.00;7283418;19;153550;-63
2022/07/26 06:19:42;;;;;;;;;;;;;;;22.55;48.00;101632.56;7281042;19;154003;-63
2022/07/26 06:22:13;;;;;;;;;;;;;;;22.68;47.48;101638.56;7283904;19;152244;-63
2022/07/26 06:24:40;;;;;;;;;;;;;;;22.64;47.48;101627.06;7284830;19;153440;-62
2022/07/26 06:27:07;;;;;;;;;;;;;;;22.70;47.87;101630.69;7282277;19;152606;-63
2022/07/26 06:29:33;;;;;;;;;;;;;;;22.54;47.95;101628.06;7291670;19;153715;-63
2022/07/26 06:32:00;;;;;;;;;;;;;;;22.58;48.22;101634.75;7282961;19;153681;-63
2022/07/26 06:34:27;;;;;;;;;;;;;;;22.58;48.19;101642.38;7281712;19;152680;-63
2022/07/26 06:36:54;;;;;;;;;;;;;;;22.57;48.03;101632.28;7281483;19;153297;-63
2022/07/26 06:39:31;;;;;;;;;;;;;;;22.49;48.05;101633.78;7282934;19;154517;-63
2022/07/26 06:41:59;;;;;;;;;;;;;;;22.46;48.36;101642.84;7284806;19;152118;-63
2022/07/26 06:44:26;;;;;;;;;;;;;;;22.49;48.34;101647.00;7283803;19;153661;-63
2022/07/26 06:46:53;;;;;;;;;;;;;;;22.47;48.65;101649.31;7282507;19;152420;-62
2022/07/26 06:49:32;;;;;;;;;;;;;;;22.55;48.33;101646.66;7281127;19;152027;-63
2022/07/26 06:52:01;;;;;;;;;;;;;;;22.48;48.24;101651.84;7288364;19;152988;-63
2022/07/26 06:54:28;;;;;;;;;;;;;;;22.51;48.26;101650.38;7285101;19;151906;-63
2022/07/26 06:56:55;;;;;;;;;;;;;;;22.59;48.20;101661.78;7286839;19;154226;-63
2022/07/26 06:59:30;;;;;;;;;;;;;;;22.55;48.43;101663.53;7285964;19;153446;-63
2022/07/26 07:02:00;;;;;;;;;;;;;;;22.54;48.54;101666.66;7284546;19;151814;-63
2022/07/26 07:04:28;;;;;;;;;;;;;;;22.59;48.32;101666.59;7278878;19;152719;-63
2022/07/26 07:06:56;;;;;;;;;;;;;;;22.62;48.28;101672.44;7282714;19;154838;-63
2022/07/26 07:09:30;;;;;;;;;;;;;;;22.60;48.32;101671.91;7284329;19;152494;-63
2022/07/26 07:12:00;;;;;;;;;;;;;;;22.58;48.24;101681.81;7291822;19;151840;-62
2022/07/26 07:14:36;;;;;;;;;;;;;;;22.56;48.73;101681.28;7284523;19;152141;-63
2022/07/26 07:17:03;;;;;;;;;;;;;;;22.53;48.88;101674.25;7282773;19;153823;-63
2022/07/26 07:19:40;;;;;;;;;;;;;;;22.56;48.43;101676.50;7281990;19;152884;-63
2022/07/26 07:22:10;;;;;;;;;;;;;;;22.62;48.33;101685.72;7282669;19;153339;-62
2022/07/26 07:24:38;;;;;;;;;;;;;;;22.61;48.52;101686.84;7283723;19;152147;-62
2022/07/26 07:27:05;;;;;;;;;;;;;;;22.57;48.25;101692.25;7279720;19;153701;-63
2022/07/26 07:29:32;;;;;;;;;;;;;;;22.57;48.24;101695.06;7282942;19;154741;-63
2022/07/26 07:32:03;;;;;;;;;;;;;;;22.67;48.52;101696.88;7282797;19;155159;-63
2022/07/26 07:34:30;;;;;;;;;;;;;;;22.56;48.44;101693.41;7285543;19;153106;-63
2022/07/26 07:36:58;;;;;;;;;;;;;;;22.66;48.44;101691.56;7281583;19;152584;-63
2022/07/26 07:39:32;;;;;;;;;;;;;;;22.66;48.41;101698.03;7282181;19;154391;-63
2022/07/26 07:42:04;;;;;;;;;;;;;;;22.65;48.35;101693.53;7282237;19;152329;-63
2022/07/26 07:44:32;;;;;;;;;;;;;;;22.61;48.47;101693.31;7283177;19;153544;-63
2022/07/26 07:47:00;;;;;;;;;;;;;;;22.59;48.40;101689.13;7279832;19;154018;-63
2022/07/26 07:49:33;;;;;;;;;;;;;;;22.66;48.35;101685.94;7284581;19;152997;-62
2022/07/26 07:52:04;;;;;;;;;;;;;;;22.58;48.28;101690.25;7287325;19;152949;-63
2022/07/26 07:54:31;;;;;;;;;;;;;;;22.62;48.33;101691.34;7285661;19;154022;-62
2022/07/26 07:56:58;;;;;;;;;;;;;;;22.66;48.30;101681.13;7297016;19;152779;-62
2022/07/26 07:59:32;;;;;;;;;;;;;;;22.61;48.26;101679.25;7287610;19;153198;-62
2022/07/26 08:02:05;;;;;;;;;;;;;;;22.62;48.30;101686.53;7287792;19;152104;-62
2022/07/26 08:04:31;;;;;;;;;;;;;;;22.67;48.60;101681.97;7284293;19;152930;-62
2022/07/26 08:06:58;;;;;;;;;;;;;;;22.61;48.54;101687.69;7286640;19;154167;-62
2022/07/26 08:09:32;;;;;;;;;;;;;;;22.66;48.40;101698.03;7289195;19;151861;-62
2022/07/26 08:12:01;;;;;;;;;;;;;;;22.71;48.53;101694.34;7285552;19;152998;-62
2022/07/26 08:14:28;;;;;;;;;;;;;;;22.71;48.58;101700.81;7286961;19;152726;-62
2022/07/26 08:16:55;;;;;;;;;;;;;;;22.70;48.47;101689.84;7289020;19;152489;-62
2022/07/26 08:19:31;;;;;;;;;;;;;;;22.65;48.31;101696.34;7290474;19;152854;-62
2022/07/26 08:22:07;;;;;;;;;;;;;;;22.68;48.09;101701.38;7286679;19;152638;-62
2022/07/26 08:24:34;;;;;;;;;;;;;;;22.66;48.02;101700.03;7287309;19;152700;-62
2022/07/26 08:27:01;;;;;;;;;;;;;;;22.65;48.42;101701.16;7285202;19;153549;-62
2022/07/26 08:29:32;;;;;;;;;;;;;;;22.66;48.52;101705.66;7287657;19;151867;-63
2022/07/26 08:32:00;;;;;;;;;;;;;;;22.67;48.40;101702.50;7286863;19;153096;-62
2022/07/26 08:34:27;;;;;;;;;;;;;;;22.84;47.73;101704.84;7284573;19;154040;-63
2022/07/26 08:36:54;;;;;;;;;;;;;;;22.66;48.44;101708.47;7287616;19;152221;-62
2022/07/26 08:39:41;;;;;;;;;;;;;;;22.74;48.23;101708.66;7287254;19;155496;-63
2022/07/26 08:42:11;;;;;;;;;;;;;;;22.69;48.40;101708.69;7295207;19;154398;-62
2022/07/26 08:44:40;;;;;;;;;;;;;;;22.73;48.31;101706.97;7285991;19;152952;-62
2022/07/26 08:47:08;;;;;;;;;;;;;;;22.70;47.96;101707.59;7286004;19;153196;-62
2022/07/26 08:49:37;;;;;;;;;;;;;;;22.77;47.82;101704.38;7284267;19;152816;-62
2022/07/26 08:52:04;;;;;;;;;;;;;;;22.79;48.11;101704.91;7286773;19;153749;-62
2022/07/26 08:54:32;;;;;;;;;;;;;;;22.72;48.12;101716.56;7286447;19;155307;-62
2022/07/26 08:56:59;;;;;;;;;;;;;;;22.74;48.09;101724.72;7286285;19;152171;-63
2022/07/26 08:59:32;;;;;;;;;;;;;;;22.70;48.13;101723.66;7286139;19;152830;-63
2022/07/26 09:02:02;;;;;;;;;;;;;;;22.76;48.04;101714.81;7286508;19;152144;-62
2022/07/26 09:04:29;;;;;;;;;;;;;;;22.72;48.33;101715.72;7288859;19;152919;-62
2022/07/26 09:07:06;;;;;;;;;;;;;;;22.71;47.91;101712.09;7283764;19;153460;-62
2022/07/26 09:09:35;;;;;;;;;;;;;;;22.79;47.98;101713.38;7286542;19;152302;-63
2022/07/26 09:12:13;;;;;;;;;;;;;;;22.80;47.68;101727.16;7287274;19;152129;-63
2022/07/26 09:14:40;;;;;;;;;;;;;;;22.76;48.20;101730.91;7284733;19;152738;-62
2022/07/26 09:17:07;;;;;;;;;;;;;;;22.75;48.00;101727.25;7286456;19;152394;-63
2022/07/26 09:19:35;;;;;;;;;;;;;;;22.77;48.20;101733.38;7284830;19;154101;-62
2022/07/26 09:22:05;;;;;;;;;;;;;;;22.78;47.83;101740.72;7281725;19;153887;-62
2022/07/26 09:24:45;;;;;;;;;;;;;;;22.76;48.00;101736.53;7294783;19;153496;-62
2022/07/26 09:27:14;;;;;;;;;;;;;;;22.79;47.70;101738.72;7285810;19;153319;-62
2022/07/26 09:29:45;;;;;;;;;;;;;;;22.77;47.87;101735.38;7287367;19;152148;-62
2022/07/26 09:32:15;;;;;;;;;;;;;;;22.78;47.96;101734.22;7286319;19;153196;-62
2022/07/26 09:34:48;;;;;;;;;;;;;;;22.79;47.96;101739.56;7282411;19;153993;-62
2022/07/26 09:37:31;;;;;;;;;;;;;;;22.78;47.42;101740.72;7282387;19;151970;-62
2022/07/26 09:39:59;;;;;;;;;;;;;;;22.79;47.34;101738.72;7285622;19;153348;-62
2022/07/26 09:42:26;;;;;;;;;;;;;;;22.80;47.37;101741.25;7283515;19;154220;-62
2022/07/26 09:44:56;;;;;;;;;;;;;;;22.79;47.46;101738.72;7286259;19;153861;-62
2022/07/26 09:47:34;;;;;;;;;;;;;;;22.77;47.26;101741.00;7293820;19;152474;-62
2022/07/26 09:50:16;;;;;;;;;;;;;;;22.81;47.55;101737.28;7282630;19;153283;-63
2022/07/26 09:53:00;;;;;;;;;;;;;;;22.87;46.84;101740.84;7285610;19;153498;-62
2022/07/26 09:55:28;;;;;;;;;;;;;;;22.85;47.15;101735.50;7284561;19;154516;-62
2022/07/26 09:58:12;;;;;;;;;;;;;;;22.79;47.32;101741.53;7284249;19;152213;-62
2022/07/26 10:00:40;;;;;;;;;;;;;;;22.86;47.11;101744.81;7285413;19;153512;-62
2022/07/26 10:03:07;;;;;;;;;;;;;;;22.79;47.22;101744.38;7283130;19;153940;-62
2022/07/26 10:05:35;;;;;;;;;;;;;;;22.81;47.04;101745.72;7283119;19;152657;-62
2022/07/26 10:08:02;;;;;;;;;;;;;;;22.85;47.01;101743.97;7283467;19;152926;-62
2022/07/26 10:10:28;;;;;;;;;;;;;;;22.83;46.85;101740.63;7290724;19;153191;-63
2022/07/26 10:12:56;;;;;;;;;;;;;;;22.81;46.81;101753.34;7285291;19;154087;-62
2022/07/26 10:15:34;;;;;;;;;;;;;;;22.90;46.80;101745.88;7285178;19;153333;-62
2022/07/26 10:18:01;;;;;;;;;;;;;;;22.88;46.73;101745.34;7285306;19;152631;-62
2022/07/26 10:20:38;;;;;;;;;;;;;;;22.85;46.88;101748.78;7282244;19;152797;-62
2022/07/26 10:23:05;;;;;;;;;;;;;;;;;;7282944;19;153423;-63
2022/07/26 10:25:32;;;;;;;;;;;;;;;22.84;46.79;101761.19;7283864;19;160970;-62
2022/07/26 10:27:59;;;;;;;;;;;;;;;22.83;46.87;101753.88;7283763;19;154005;-63
2022/07/26 10:30:26;;;;;;;;;;;;;;;22.90;46.86;101759.97;7284589;19;153232;-62
2022/07/26 10:33:01;;;;;;;;;;;;;;;22.89;46.57;101759.16;7290143;19;153861;-62
2022/07/26 10:38:09;;;;;;;;;;;;;;;22.91;46.67;101748.38;7284873;19;152085;-62
2022/07/26 10:40:37;;;;;;;;;;;;;;;22.91;46.55;101756.00;7283441;19;154790;-62
2022/07/26 10:43:22;;;;;;;;;;;;;;;22.90;46.83;101751.50;7281837;19;153958;-63
2022/07/26 10:46:12;;;;;;;;;;;;;;;22.92;46.48;101757.69;7284823;19;152424;-62
2022/07/26 10:48:58;;;;;;;;;;;;;;;22.84;46.63;101764.84;7279488;19;154620;-62
2022/07/26 10:51:28;;;;;;;;;;;;;;;22.84;46.33;101766.84;7283566;19;153608;-62
2022/07/26 10:53:59;;;;;;;;;;;;;;;22.91;46.41;101762.47;7281237;19;154099;-62
2022/07/26 10:56:27;;;;;;;;;;;;;;;22.92;46.46;101768.97;7291339;19;152686;-62
2022/07/26 10:58:59;;;;;;;;;;;;;;;22.87;46.31;101754.94;7284167;19;151506;-62
2022/07/26 11:01:32;;;;;;;;;;;;;;;22.88;46.25;101762.25;7284939;19;153758;-62
2022/07/26 11:04:00;;;;;;;;;;;;;;;22.83;46.14;101757.53;7277007;19;154870;-62
2022/07/26 11:06:31;;;;;;;;;;;;;;;22.94;46.22;101758.22;7283600;19;152267;-63
2022/07/26 11:09:08;;;;;;;;;;;;;;;22.92;45.83;101766.13;7282035;19;152971;-62
2022/07/26 11:11:34;;;;;;;;;;;;;;;22.95;45.68;101760.72;7281126;19;153225;-62
2022/07/26 11:14:12;;;;;;;;;;;;;;;22.92;46.15;101760.50;7283796;19;152207;-62
2022/07/26 11:16:41;;;;;;;;;;;;;;;22.92;46.26;101763.31;7283233;19;154640;-63
2022/07/26 11:19:18;;;;;;;;;;;;;;;22.89;45.84;101759.16;7286753;19;152206;-62
2022/07/26 11:21:55;;;;;;;;;;;;;;;22.96;45.72;101750.28;7283023;19;152064;-63
2022/07/26 11:24:22;;;;;;;;;;;;;;;22.94;45.77;101755.41;7288439;19;153470;-62
2022/07/26 11:26:49;;;;;;;;;;;;;;;22.95;45.91;101755.09;7287796;19;152529;-62
2022/07/26 11:29:33;;;;;;;;;;;;;;;22.94;46.00;101752.59;7288131;19;155359;-62
2022/07/26 11:32:15;;;;;;;;;;;;;;;22.98;45.63;101753.66;7288669;19;152785;-62
2022/07/26 11:34:44;;;;;;;;;;;;;;;22.97;45.47;101754.78;7287075;19;152279;-62
2022/07/26 11:37:12;;;;;;;;;;;;;;;22.96;45.45;101750.28;7286088;19;153048;-62
2022/07/26 11:39:41;;;;;;;;;;;;;;;22.93;45.67;101756.56;7295035;19;152639;-62
2022/07/26 11:42:13;;;;;;;;;;;;;;;22.92;45.73;101760.50;7289963;19;153462;-62
2022/07/26 11:44:44;;;;;;;;;;;;;;;22.90;45.62;101759.97;7287939;19;154050;-62
2022/07/26 11:47:12;;;;;;;;;;;;;;;22.93;45.59;101763.03;7288829;19;153248;-62
2022/07/26 11:49:39;;;;;;;;;;;;;;;22.94;45.22;101764.69;7282024;19;152774;-62
2022/07/26 11:52:30;;;;;;;;;;;;;;;22.99;45.57;101761.78;7286685;19;156331;-62
2022/07/26 11:54:58;;;;;;;;;;;;;;;22.91;45.53;101764.47;7289222;19;152330;-62
2022/07/26 11:57:29;;;;;;;;;;;;;;;22.92;45.45;101752.91;7288722;19;153882;-62
2022/07/26 11:59:57;;;;;;;;;;;;;;;22.94;45.37;101749.78;7287393;19;152243;-63
2022/07/26 12:02:24;;;;;;;;;;;;;;;22.92;45.18;101761.34;7295399;19;152581;-62
2022/07/26 12:05:11;;;;;;;;;;;;;;;22.88;45.80;101762.25;7283019;19;152671;-63
2022/07/26 12:07:51;;;;;;;;;;;;;;;22.90;45.61;101760.81;7287780;19;152023;-63
2022/07/26 12:10:18;;;;;;;;;;;;;;;22.97;45.06;101769.72;7286803;19;152676;-62
2022/07/26 12:12:45;;;;;;;;;;;;;;;23.00;45.23;101760.66;7286924;19;153236;-62
2022/07/26 12:15:14;;;;;;;;;;;;;;;22.97;45.02;101761.28;7288376;19;152834;-62
2022/07/26 12:18:01;;;;;;;;;;;;;;;23.05;44.90;101768.19;7287446;19;154637;-62
2022/07/26 12:20:28;;;;;;;;;;;;;;;22.97;45.18;101766.91;7281702;19;153197;-62
2022/07/26 12:23:04;;;;;;;;;;;;;;;23.00;44.89;101763.47;7287818;19;152123;-62
2022/07/26 12:25:34;;;;;;;;;;;;;;;23.02;44.81;101768.81;7294479;19;153080;-62
2022/07/26 12:28:01;;;;;;;;;;;;;;;23.02;44.85;101766.00;7288022;19;151918;-62
2022/07/26 12:30:33;;;;;;;;;;;;;;;22.91;45.24;101767.28;7284969;19;152944;-62
2022/07/26 12:33:00;;;;;;;;;;;;;;;22.96;44.57;101775.66;7286052;19;153436;-62
2022/07/26 12:35:31;;;;;;;;;;;;;;;22.95;44.90;101774.81;7282698;19;152311;-62
2022/07/26 12:37:58;;;;;;;;;;;;;;;23.02;44.82;101766.00;7285777;19;152999;-63
2022/07/26 12:40:26;;;;;;;;;;;;;;;23.03;44.55;101778.94;7286207;19;154026;-62